Terminal Aerodrome Forecast
Issued by NWS Sterling, VA

Current Version | Previous Version | Graphics & Text | Print | Product List | Glossary On
Versions: 1 2 3 4 5 6 7 8 9 10 11 12 13 14 15 16 17 18 19 20 21
000
FTUS41 KLWX 232059 AAA
TAFDCA
TAF AMD
KDCA 232059Z 2321/2418 30015G25KT P6SM BKN070
     FM240000 29010KT P6SM BKN070
     FM240400 32007KT P6SM SCT090
     FM241400 30015G23KT P6SM FEW250=

USA.gov is the U.S. government's official web portal to all federal, state and local government web resources and services.